地図

経路データ

SID SEASON NUMBER BASIN SUBBASIN NAME ISO_TIME NATURE LAT LON WMO_WIND WMO_PRES WMO_AGENCY TRACK_TYPE DIST2LAND LANDFALL IFLAG USA_AGENCY USA_ATCF_ID USA_LAT USA_LON USA_RECORD USA_STATUS USA_WIND USA_PRES USA_SSHS USA_R34_NE USA_R34_SE USA_R34_SW USA_R34_NW USA_R50_NE USA_R50_SE USA_R50_SW USA_R50_NW USA_R64_NE USA_R64_SE USA_R64_SW USA_R64_NW USA_POCI USA_ROCI USA_RMW USA_EYE TOKYO_LAT TOKYO_LON TOKYO_GRADE TOKYO_WIND TOKYO_PRES TOKYO_R50_DIR TOKYO_R50_LONG TOKYO_R50_SHORT TOKYO_R30_DIR TOKYO_R30_LONG TOKYO_R30_SHORT TOKYO_LAND CMA_LAT CMA_LON CMA_CAT CMA_WIND CMA_PRES HKO_LAT HKO_LON HKO_CAT HKO_WIND HKO_PRES NEWDELHI_LAT NEWDELHI_LON NEWDELHI_GRADE NEWDELHI_WIND NEWDELHI_PRES NEWDELHI_CI NEWDELHI_DP NEWDELHI_POCI REUNION_LAT REUNION_LON REUNION_TYPE REUNION_WIND REUNION_PRES REUNION_TNUM REUNION_CI REUNION_RMW REUNION_R34_NE REUNION_R34_SE REUNION_R34_SW REUNION_R34_NW REUNION_R50_NE REUNION_R50_SE REUNION_R50_SW REUNION_R50_NW REUNION_R64_NE REUNION_R64_SE REUNION_R64_SW REUNION_R64_NW BOM_LAT BOM_LON BOM_TYPE BOM_WIND BOM_PRES BOM_TNUM BOM_CI BOM_RMW BOM_R34_NE BOM_R34_SE BOM_R34_SW BOM_R34_NW BOM_R50_NE BOM_R50_SE BOM_R50_SW BOM_R50_NW BOM_R64_NE BOM_R64_SE BOM_R64_SW BOM_R64_NW BOM_ROCI BOM_POCI BOM_EYE BOM_POS_METHOD BOM_PRES_METHOD NADI_LAT NADI_LON NADI_CAT NADI_WIND NADI_PRES WELLINGTON_LAT WELLINGTON_LON WELLINGTON_WIND WELLINGTON_PRES DS824_LAT DS824_LON DS824_STAGE DS824_WIND DS824_PRES TD9636_LAT TD9636_LON TD9636_STAGE TD9636_WIND TD9636_PRES TD9635_LAT TD9635_LON TD9635_WIND TD9635_PRES TD9635_ROCI NEUMANN_LAT NEUMANN_LON NEUMANN_CLASS NEUMANN_WIND NEUMANN_PRES MLC_LAT MLC_LON MLC_CLASS MLC_WIND MLC_PRES USA_GUST BOM_GUST BOM_GUST_PER REUNION_GUST REUNION_GUST_PER USA_SEAHGT USA_SEARAD_NE USA_SEARAD_SE USA_SEARAD_SW USA_SEARAD_NW STORM_SPEED STORM_DIR
1905235N10146 1905 34 WP MM NOT_NAMED 1905-08-22 16:00:00 NR 10.0000 145.800 main 1358 1358 __________O___ -1 10.0000 145.800 7 22 301
1905235N10146 1905 34 WP MM NOT_NAMED 1905-08-22 18:00:00 NR 10.3711 145.176 main 1409 1410 __________P___ -1 10.3711 145.176 7 21 301
1905235N10146 1905 34 WP MM NOT_NAMED 1905-08-22 21:00:00 NR 10.9125 144.259 main 1478 1480 __________P___ -1 10.9125 144.259 7 20 301
1905235N10146 1905 34 WP MM NOT_NAMED 1905-08-23 00:00:00 NR 11.4175 143.398 main 1553 1553 __________P___ -1 11.4175 143.398 7 19 301
1905235N10146 1905 34 WP MM NOT_NAMED 1905-08-23 03:00:00 NR 11.8662 142.629 main 1588 1585 __________P___ -1 11.8662 142.629 7 17 301
1905235N10146 1905 34 WP MM NOT_NAMED 1905-08-23 04:00:00 NR 12.0000 142.400 main 1592 1589 __________O___ -1 12.0000 142.400 3 15 301
1905235N10146 1905 34 WP MM NOT_NAMED 1905-08-23 06:00:00 NR 12.2415 141.986 main 1602 1605 __________P___ -1 12.2415 141.986 3 13 301
1905235N10146 1905 34 WP MM NOT_NAMED 1905-08-23 09:00:00 NR 12.5480 141.454 main 1613 1615 __________P___ -1 12.5480 141.454 3 11 300
1905235N10146 1905 34 WP MM NOT_NAMED 1905-08-23 12:00:00 NR 12.8044 140.989 main 1624 1615 __________P___ -1 12.8044 140.989 3 10 299
1905235N10146 1905 34 WP MM NOT_NAMED 1905-08-23 15:00:00 NR 13.0290 140.549 main 1615 1605 __________P___ -1 13.0290 140.549 3 10 297
1905235N10146 1905 34 WP MM NOT_NAMED 1905-08-23 16:00:00 NR 13.1000 140.400 main 1605 1574 __________O___ -1 13.1000 140.400 4 10 295
1905235N10146 1905 34 WP MM NOT_NAMED 1905-08-23 18:00:00 NR 13.2529 140.064 main 1576 1524 __________P___ -1 13.2529 140.064 4 11 294
1905235N10146 1905 34 WP MM NOT_NAMED 1905-08-23 21:00:00 NR 13.4635 139.560 main 1526 1474 __________P___ -1 13.4635 139.560 4 11 292
1905235N10146 1905 34 WP MM NOT_NAMED 1905-08-24 00:00:00 NR 13.6572 139.058 main 1476 1425 __________P___ -1 13.6572 139.058 4 10 291
1905235N10146 1905 34 WP MM NOT_NAMED 1905-08-24 03:00:00 NR 13.8403 138.563 main 1425 1406 __________P___ -1 13.8403 138.563 4 10 291
1905235N10146 1905 34 WP MM NOT_NAMED 1905-08-24 04:00:00 NR 13.9000 138.400 main 1406 1377 __________O___ -1 13.9000 138.400 4 10 290
1905235N10146 1905 34 WP MM NOT_NAMED 1905-08-24 06:00:00 NR 14.0143 138.072 main 1377 1329 __________P___ -1 14.0143 138.072 4 10 289
1905235N10146 1905 34 WP MM NOT_NAMED 1905-08-24 09:00:00 NR 14.1795 137.587 main 1329 1277 __________P___ -1 14.1795 137.587 4 10 290
1905235N10146 1905 34 WP MM NOT_NAMED 1905-08-24 12:00:00 NR 14.3481 137.112 main 1277 1239 __________P___ -1 14.3481 137.112 4 10 291
1905235N10146 1905 34 WP MM NOT_NAMED 1905-08-24 15:00:00 NR 14.5328 136.650 main 1239 1220 __________P___ -1 14.5328 136.650 4 10 293
1905235N10146 1905 34 WP MM NOT_NAMED 1905-08-24 16:00:00 NR 14.6000 136.500 main 1220 1190 __________O___ -1 14.6000 136.500 4 10 297
1905235N10146 1905 34 WP MM NOT_NAMED 1905-08-24 18:00:00 NR 14.7518 136.213 main 1193 1156 __________P___ -1 14.7518 136.213 4 9 300
1905235N10146 1905 34 WP MM NOT_NAMED 1905-08-24 21:00:00 NR 14.9987 135.795 main 1156 1121 __________P___ -1 14.9987 135.795 4 10 302
1905235N10146 1905 34 WP MM NOT_NAMED 1905-08-25 00:00:00 NR 15.2576 135.379 main 1124 1080 __________P___ -1 15.2576 135.379 4 10 302
1905235N10146 1905 34 WP MM NOT_NAMED 1905-08-25 03:00:00 NR 15.5161 134.949 main 1080 1073 __________P___ -1 15.5161 134.949 4 10 302
1905235N10146 1905 34 WP MM NOT_NAMED 1905-08-25 04:00:00 NR 15.6000 134.800 main 1073 1047 __________O___ -1 15.6000 134.800 4 10 299
1905235N10146 1905 34 WP MM NOT_NAMED 1905-08-25 06:00:00 NR 15.7582 134.489 main 1051 1010 __________P___ -1 15.7582 134.489 4 10 297
1905235N10146 1905 34 WP MM NOT_NAMED 1905-08-25 09:00:00 NR 15.9892 134.003 main 1010 971 __________P___ -1 15.9892 134.003 4 11 296
1905235N10146 1905 34 WP MM NOT_NAMED 1905-08-25 12:00:00 NR 16.2130 133.498 main 971 935 __________P___ -1 16.2130 133.498 4 11 294
1905235N10146 1905 34 WP MM NOT_NAMED 1905-08-25 15:00:00 NR 16.4294 132.977 main 935 922 __________P___ -1 16.4294 132.977 4 11 293
1905235N10146 1905 34 WP MM NOT_NAMED 1905-08-25 16:00:00 NR 16.5000 132.800 main 922 891 __________O___ -1 16.5000 132.800 4 11 293
1905235N10146 1905 34 WP MM NOT_NAMED 1905-08-25 18:00:00 NR 16.6468 132.439 main 891 860 __________P___ -1 16.6468 132.439 4 11 292
1905235N10146 1905 34 WP MM NOT_NAMED 1905-08-25 21:00:00 NR 16.8610 131.886 main 866 821 __________P___ -1 16.8610 131.886 4 11 291
1905235N10146 1905 34 WP MM NOT_NAMED 1905-08-26 00:00:00 NR 17.0623 131.328 main 821 778 __________P___ -1 17.0623 131.328 4 11 290
1905235N10146 1905 34 WP MM NOT_NAMED 1905-08-26 03:00:00 NR 17.2446 130.779 main 778 765 __________P___ -1 17.2446 130.779 4 11 289
1905235N10146 1905 34 WP MM NOT_NAMED 1905-08-26 04:00:00 NR 17.3000 130.600 main 765 734 __________O___ -1 17.3000 130.600 4 11 287
1905235N10146 1905 34 WP MM NOT_NAMED 1905-08-26 06:00:00 NR 17.4002 130.247 main 734 695 __________P___ -1 17.4002 130.247 4 10 286
1905235N10146 1905 34 WP MM NOT_NAMED 1905-08-26 09:00:00 NR 17.5318 129.730 main 695 659 __________P___ -1 17.5318 129.730 4 10 284
1905235N10146 1905 34 WP MM NOT_NAMED 1905-08-26 12:00:00 NR 17.6493 129.232 main 659 634 __________P___ -1 17.6493 129.232 4 10 284
1905235N10146 1905 34 WP MM NOT_NAMED 1905-08-26 15:00:00 NR 17.7619 128.754 main 641 626 __________P___ -1 17.7619 128.754 4 9 284
1905235N10146 1905 34 WP MM NOT_NAMED 1905-08-26 16:00:00 NR 17.8000 128.600 main 626 610 __________O___ -1 17.8000 128.600 4 9 286
1905235N10146 1905 34 WP MM NOT_NAMED 1905-08-26 18:00:00 NR 17.8829 128.302 main 611 583 __________P___ -1 17.8829 128.302 4 9 287
1905235N10146 1905 34 WP MM NOT_NAMED 1905-08-26 21:00:00 NR 18.0076 127.874 main 583 544 __________P___ -1 18.0076 127.874 4 8 287
1905235N10146 1905 34 WP MM NOT_NAMED 1905-08-27 00:00:00 NR 18.1327 127.458 main 544 496 __________P___ -1 18.1327 127.458 4 8 288
1905235N10146 1905 34 WP MM NOT_NAMED 1905-08-27 03:00:00 NR 18.2581 127.041 main 496 485 __________P___ -1 18.2581 127.041 4 8 288
1905235N10146 1905 34 WP MM NOT_NAMED 1905-08-27 04:00:00 NR 18.3000 126.900 main 485 453 __________O___ -1 18.3000 126.900 4 9 286
1905235N10146 1905 34 WP MM NOT_NAMED 1905-08-27 06:00:00 NR 18.3806 126.600 main 453 401 __________P___ -1 18.3806 126.600 4 9 286
1905235N10146 1905 34 WP MM NOT_NAMED 1905-08-27 09:00:00 NR 18.5016 126.144 main 401 359 __________P___ -1 18.5016 126.144 4 9 286
1905235N10146 1905 34 WP MM NOT_NAMED 1905-08-27 12:00:00 NR 18.6253 125.689 main 359 308 __________P___ -1 18.6253 125.689 4 9 287
1905235N10146 1905 34 WP MM NOT_NAMED 1905-08-27 15:00:00 NR 18.7549 125.244 main 308 298 __________P___ -1 18.7549 125.244 4 9 287
1905235N10146 1905 34 WP MM NOT_NAMED 1905-08-27 16:00:00 NR 18.8000 125.100 main 298 269 __________O___ -1 18.8000 125.100 4 8 290
1905235N10146 1905 34 WP MM NOT_NAMED 1905-08-27 18:00:00 NR 18.8991 124.832 main 269 234 __________P___ -1 18.8991 124.832 4 8 292
1905235N10146 1905 34 WP MM NOT_NAMED 1905-08-27 21:00:00 NR 19.0543 124.444 main 234 209 __________P___ -1 19.0543 124.444 4 8 293
1905235N10146 1905 34 WP MM NOT_NAMED 1905-08-28 00:00:00 NR 19.2095 124.054 main 209 176 __________P___ -1 19.2095 124.054 4 8 292
1905235N10146 1905 34 WP MM NOT_NAMED 1905-08-28 03:00:00 NR 19.3552 123.644 main 176 168 __________P___ -1 19.3552 123.644 4 8 290
1905235N10146 1905 34 WP MM NOT_NAMED 1905-08-28 04:00:00 NR 19.4000 123.500 main 168 153 __________O___ -1 19.4000 123.500 4 9 286
1905235N10146 1905 34 WP MM NOT_NAMED 1905-08-28 06:00:00 NR 19.4754 123.192 main 155 133 __________P___ -1 19.4754 123.192 4 9 283
1905235N10146 1905 34 WP MM NOT_NAMED 1905-08-28 09:00:00 NR 19.5758 122.705 main 140 134 __________P___ -1 19.5758 122.705 4 10 282
1905235N10146 1905 34 WP MM NOT_NAMED 1905-08-28 12:00:00 NR 19.6694 122.196 main 145 140 __________P___ -1 19.6694 122.196 4 10 281
1905235N10146 1905 34 WP MM NOT_NAMED 1905-08-28 15:00:00 NR 19.7657 121.675 main 148 145 __________P___ -1 19.7657 121.675 4 10 281
1905235N10146 1905 34 WP MM NOT_NAMED 1905-08-28 16:00:00 NR 19.8000 121.500 main 145 140 __________O___ -1 19.8000 121.500 4 10 284
1905235N10146 1905 34 WP MM NOT_NAMED 1905-08-28 18:00:00 NR 19.8853 121.153 main 148 145 __________P___ -1 19.8853 121.153 4 10 285
1905235N10146 1905 34 WP MM NOT_NAMED 1905-08-28 21:00:00 NR 20.0199 120.627 main 158 158 __________P___ -1 20.0199 120.627 4 10 285
1905235N10146 1905 34 WP MM NOT_NAMED 1905-08-29 00:00:00 NR 20.1513 120.098 main 193 193 __________P___ -1 20.1513 120.098 4 10 284
1905235N10146 1905 34 WP MM NOT_NAMED 1905-08-29 03:00:00 NR 20.2670 119.573 main 212 217 __________P___ -1 20.2670 119.573 4 10 283
1905235N10146 1905 34 WP MM NOT_NAMED 1905-08-29 04:00:00 NR 20.3000 119.400 main 224 224 __________O___ -1 20.3000 119.400 4 10 280
1905235N10146 1905 34 WP MM NOT_NAMED 1905-08-29 06:00:00 NR 20.3473 119.066 main 244 243 __________P___ -1 20.3473 119.066 4 9 277
1905235N10146 1905 34 WP MM NOT_NAMED 1905-08-29 09:00:00 NR 20.3997 118.571 main 274 283 __________P___ -1 20.3997 118.571 4 9 276
1905235N10146 1905 34 WP MM NOT_NAMED 1905-08-29 12:00:00 NR 20.4409 118.076 main 317 291 __________P___ -1 20.4409 118.076 4 9 275
1905235N10146 1905 34 WP MM NOT_NAMED 1905-08-29 15:00:00 NR 20.4834 117.572 main 291 283 __________P___ -1 20.4834 117.572 4 10 275
1905235N10146 1905 34 WP MM NOT_NAMED 1905-08-29 16:00:00 NR 20.5000 117.400 main 283 264 __________O___ -1 20.5000 117.400 4 10 278
1905235N10146 1905 34 WP MM NOT_NAMED 1905-08-29 18:00:00 NR 20.5513 117.068 main 264 248 __________P___ -1 20.5513 117.068 4 10 280
1905235N10146 1905 34 WP MM NOT_NAMED 1905-08-29 21:00:00 NR 20.6351 116.559 main 248 224 __________P___ -1 20.6351 116.559 4 10 280
1905235N10146 1905 34 WP MM NOT_NAMED 1905-08-30 00:00:00 NR 20.7165 116.016 main 224 196 __________P___ -1 20.7165 116.016 4 11 278
1905235N10146 1905 34 WP MM NOT_NAMED 1905-08-30 03:00:00 NR 20.7832 115.416 main 196 191 __________P___ -1 20.7832 115.416 4 12 276
1905235N10146 1905 34 WP MM NOT_NAMED 1905-08-30 04:00:00 NR 20.8000 115.200 main 191 172 __________O___ -1 20.8000 115.200 4 13 273
1905235N10146 1905 34 WP MM NOT_NAMED 1905-08-30 06:00:00 NR 20.8148 114.729 main 172 160 __________P___ -1 20.8148 114.729 4 14 271
1905235N10146 1905 34 WP MM NOT_NAMED 1905-08-30 09:00:00 NR 20.8179 113.966 main 160 124 __________P___ -1 20.8179 113.966 4 15 270
1905235N10146 1905 34 WP MM NOT_NAMED 1905-08-30 12:00:00 NR 20.8089 113.166 main 124 101 __________P___ -1 20.8089 113.166 4 15 269
1905235N10146 1905 34 WP MM NOT_NAMED 1905-08-30 15:00:00 NR 20.8004 112.362 main 101 93 __________P___ -1 20.8004 112.362 4 15 269
1905235N10146 1905 34 WP MM NOT_NAMED 1905-08-30 16:00:00 NR 20.8000 112.100 main 93 73 __________O___ -1 20.8000 112.100 4 14 270
1905235N10146 1905 34 WP MM NOT_NAMED 1905-08-30 18:00:00 NR 20.8050 111.588 main 73 43 __________P___ -1 20.8050 111.588 4 14 271
1905235N10146 1905 34 WP MM NOT_NAMED 1905-08-30 21:00:00 NR 20.8246 110.849 main 43 0 __________P___ -1 20.8246 110.849 4 14 272
1905235N10146 1905 34 WP MM NOT_NAMED 1905-08-31 00:00:00 NR 20.8543 110.134 main 0 0 __________P___ -1 20.8543 110.134 4 13 273
1905235N10146 1905 34 WP MM NOT_NAMED 1905-08-31 03:00:00 NR 20.8885 109.433 main 31 31 __________P___ -1 20.8885 109.433 4 13 273
1905235N10146 1905 34 WP MM NOT_NAMED 1905-08-31 04:00:00 NR 20.9000 109.200 main 51 __________O___ -1 20.9000 109.200 4 13 273

デジタル台風データ・検索

IBTrACS Databaseについて

本データベースは、米国NOAAが公開する1842年以降の世界の熱帯低気圧のベストトラックデータアーカイブInternational Best Track Archive for Climate Stewardship (IBTrACS)を、ウェブで閲覧しやすい形式に変換したものです。

最終更新日:2021-10-19